Terminal Aerodrome Forecast
Issued by NWS Albany, NY

Home | Current Version | Previous Version | Text Only | Print | Product List | Glossary On
Versions: 1 2 3 4 5 6 7 8 9 10 11 12 13 14 15 16 17 18 19
000
FTUS41 KALY 272300 CCA
TAFPOU
TAF COR
KPOU 272334Z 2800/2824 28006KT P6SM VCSH BKN250
      TEMPO 2800/2801 4SM -TSRA BR BKN030CB
     FM280400 VRB03KT P6SM SCT050 SCT120 SCT250
     FM280800 00000KT P6SM SCT250
     FM281500 33012KT P6SM SCT040=

USA.gov is the U.S. government's official web portal to all federal, state and local government web resources and services.